Accueil
METAR-TAF:

METAR-TAF

Aéroports :

Augsbourg, Allemagne

latitude: 48-26N, longitude: 010-56E, altitude: 461 m

Observation

Le bulletin a été fait il y a 43 minutes, à 10:20 UTC
Vent 9 kt de sud-est
Température 11°C
Humidité 54%
Pression 1002 hPa
Visibilité 10 km ou plus
pas de nuages en-dessous de 1500 mètres et pas de cumulonimbus.

METAR: EDMA 291020Z 13009KT CAVOK 11/02 Q1002

Heure: 12:03 (11:03 UTC)

Prévision

Le bulletin a été fait il y a 3 heures et 3 minutes, à 08:00 UTC
Prévision valable du 29 à 09 UTC au 29 à 18 UTC
Vent 4 kt de est
Visibilité 10 km ou plus
pas de nuages en-dessous de 1500 mètres et pas de cumulonimbus.
Evoluant progressivement
du 29 à 09 UTC au 29 à 11 UTC
Vent 6 kt de sud/sud-est
Evoluant progressivement
du 29 à 12 UTC au 29 à 14 UTC
Vent 4 kt de sud-ouest

TAF: EDMA 290800Z 2909/2918 09004KT CAVOK BECMG 2909/2911 15006KT BECMG 2912/2914 22004KT

Observations et prévisions météorologiques de plus de 4000 aéroports (messages METAR et TAF).

Les stations disponibles sont représentées par des disques jaunes et rouges sur la carte.

Passer la souris dessus pour voir le nom de la station.

Cliquer dessus pour voir les observations et prévisions météorologiques.

Pour changer de carte: cliquez sur les boutons verts avec une croix noire pour zoomer, sur le bouton vert avec un tiret pour effectuer un zoom arrière, ou sur les flèches vertes pour les cartes adjacentes.


METAR-TAF: